Time;durP1;ratioP1;P1;durP2;ratioP2;P2;SDS_P1;SDS_P2;PMS_P1;PMS_P2;Temp;Humidity;BMP_temperature;BMP_pressure;BME280_temperature;BME280_humidity;BME280_pressure;Samples;Min_cycle;Max_cycle;Signal;HPM_P1;HPM_P2
2022/05/02 00:00:30;;;;;;;5.43;4.93;;;16.90;58.60;;;;;;5045036;28;20479;-46
2022/05/02 00:02:59;;;;;;;6.13;5.63;;;16.90;58.50;;;;;;5062275;28;20434;-47
2022/05/02 00:05:28;;;;;;;5.60;5.20;;;16.90;58.50;;;;;;5037980;28;20463;-47
2022/05/02 00:07:56;;;;;;;6.50;5.90;;;16.90;58.60;;;;;;5048718;28;20426;-46
2022/05/02 00:10:24;;;;;;;5.63;5.23;;;16.90;58.60;;;;;;5048451;28;20921;-47
2022/05/02 00:12:53;;;;;;;6.90;6.30;;;16.90;58.50;;;;;;5041349;28;20527;-47
2022/05/02 00:15:21;;;;;;;6.47;5.87;;;16.90;58.60;;;;;;5041331;28;20467;-48
2022/05/02 00:17:58;;;;;;;6.07;5.57;;;16.90;58.70;;;;;;5045716;28;20431;-47
2022/05/02 00:20:29;;;;;;;6.33;5.73;;;16.90;58.70;;;;;;5044183;28;20969;-47
2022/05/02 00:22:59;;;;;;;5.93;5.43;;;16.90;58.60;;;;;;5045576;28;20895;-47
2022/05/02 00:25:29;;;;;;;5.20;4.90;;;16.90;58.70;;;;;;5039295;28;20476;-47
2022/05/02 00:27:58;;;;;;;5.97;5.47;;;16.90;58.80;;;;;;5046432;28;20449;-49
2022/05/02 00:30:27;;;;;;;6.00;5.50;;;16.90;58.80;;;;;;5045706;28;20767;-47
2022/05/02 00:32:57;;;;;;;6.57;6.03;;;16.90;58.80;;;;;;5053902;28;20495;-46
2022/05/02 00:35:25;;;;;;;5.80;5.27;;;16.90;58.70;;;;;;5062107;28;20548;-48
2022/05/02 00:37:55;;;;;;;5.53;5.13;;;16.90;58.90;;;;;;5066338;28;20983;-48
2022/05/02 00:40:23;;;;;;;5.13;4.73;;;16.90;59.00;;;;;;5051837;28;20882;-46
2022/05/02 00:42:51;;;;;;;5.90;5.40;;;16.90;58.70;;;;;;5040116;28;20478;-46
2022/05/02 00:45:21;;;;;;;6.00;5.50;;;16.90;59.00;;;;;;5044536;28;20475;-48
2022/05/02 00:47:53;;;;;;;6.20;5.60;;;16.90;58.90;;;;;;5042437;28;20981;-46
2022/05/02 00:50:34;;;;;;;5.73;5.33;;;16.90;58.90;;;;;;5043683;28;20541;-47
2022/05/02 00:53:05;;;;;;;6.43;5.93;;;16.90;59.00;;;;;;5045501;28;20782;-49
2022/05/02 00:55:33;;;;;;;7.50;6.90;;;16.90;58.90;;;;;;5045554;28;21312;-47
2022/05/02 00:58:03;;;;;;;6.23;5.73;;;16.80;58.80;;;;;;5045234;28;20509;-46
2022/05/02 01:00:33;;;;;;;4.30;4.00;;;16.90;58.90;;;;;;5045121;28;20510;-47
2022/05/02 01:03:02;;;;;;;5.30;4.90;;;16.90;59.10;;;;;;5045013;28;20947;-46
2022/05/02 01:05:30;;;;;;;5.20;4.70;;;16.80;59.00;;;;;;5033626;28;20972;-48
2022/05/02 01:07:58;;;;;;;5.60;4.97;;;16.90;59.10;;;;;;5045281;28;20534;-47
2022/05/02 01:10:29;;;;;;;6.70;6.10;;;16.80;59.00;;;;;;5039254;28;20487;-48
2022/05/02 01:12:57;;;;;;;5.70;5.30;;;16.90;59.00;;;;;;5044168;28;20474;-47
2022/05/02 01:15:27;;;;;;;6.07;5.57;;;16.80;59.10;;;;;;5043306;28;20555;-49
2022/05/02 01:17:55;;;;;;;7.20;6.50;;;16.80;59.00;;;;;;5044272;28;20473;-46
2022/05/02 01:20:24;;;;;;;6.43;5.83;;;16.80;59.10;;;;;;5045168;28;20486;-48
2022/05/02 01:22:52;;;;;;;6.07;5.57;;;16.80;59.10;;;;;;5044781;28;20638;-49
2022/05/02 01:25:21;;;;;;;6.50;6.00;;;16.80;59.10;;;;;;5037023;28;20463;-48
2022/05/02 01:27:49;;;;;;;6.67;6.07;;;16.80;59.00;;;;;;5024817;28;20447;-47
2022/05/02 01:30:17;;;;;;;5.57;5.17;;;16.80;59.10;;;;;;5040164;28;20463;-47
2022/05/02 01:32:45;;;;;;;5.60;5.10;;;16.80;59.40;;;;;;5041113;28;20471;-47
2022/05/02 01:35:13;;;;;;;5.53;5.10;;;16.80;59.20;;;;;;5038969;28;20464;-48
2022/05/02 01:37:42;;;;;;;5.50;5.07;;;16.80;59.40;;;;;;5040616;28;20511;-48
2022/05/02 01:40:12;;;;;;;6.17;5.67;;;16.80;59.30;;;;;;5026101;28;20471;-47
2022/05/02 01:42:40;;;;;;;5.57;5.07;;;16.80;59.30;;;;;;5042127;28;20458;-46
2022/05/02 01:45:09;;;;;;;5.90;5.40;;;16.80;59.30;;;;;;5043239;28;20831;-46
2022/05/02 01:47:37;;;;;;;5.80;5.30;;;16.80;59.30;;;;;;5044902;28;20429;-46
2022/05/02 01:50:05;;;;;;;5.30;4.90;;;16.80;59.30;;;;;;5043011;28;20506;-48
2022/05/02 01:52:34;;;;;;;6.17;5.50;;;16.80;59.30;;;;;;5044877;28;20466;-47
2022/05/02 01:55:03;;;;;;;6.20;5.73;;;16.80;59.30;;;;;;5040094;28;20478;-47
2022/05/02 01:57:31;;;;;;;5.80;5.30;;;16.80;59.40;;;;;;5035307;28;20489;-49
2022/05/02 01:59:59;;;;;;;5.07;4.70;;;16.80;59.40;;;;;;5045150;28;20431;-48
2022/05/02 02:02:42;;;;;;;6.07;5.47;;;16.80;59.40;;;;;;5053402;28;20469;-46
2022/05/02 02:07:56;;;;;;;6.13;5.63;;;16.80;59.40;;;;;;5045538;28;20435;-47
2022/05/02 02:10:25;;;;;;;5.93;5.43;;;16.80;59.50;;;;;;5045063;28;20452;-46
2022/05/02 02:12:53;;;;;;;5.73;5.33;;;16.80;59.40;;;;;;5037178;28;20976;-48
2022/05/02 02:15:22;;;;;;;5.70;5.20;;;16.80;59.40;;;;;;5048545;28;20838;-48
2022/05/02 02:17:50;;;;;;;5.83;5.33;;;16.80;59.50;;;;;;5050720;28;20803;-47
2022/05/02 02:20:18;;;;;;;6.17;5.03;;;16.80;59.60;;;;;;5039028;28;20468;-49
2022/05/02 02:22:46;;;;;;;5.57;5.00;;;16.80;59.50;;;;;;5050652;28;20935;-48
2022/05/02 02:25:14;;;;;;;5.40;5.00;;;16.70;59.50;;;;;;5052755;28;20483;-47
2022/05/02 02:27:43;;;;;;;5.20;4.80;;;16.70;59.50;;;;;;5049895;28;20415;-47
2022/05/02 02:30:14;;;;;;;5.60;5.20;;;16.70;59.70;;;;;;5044188;28;20479;-45
2022/05/02 02:32:42;;;;;;;5.60;5.10;;;16.70;59.70;;;;;;5030469;28;20428;-46
2022/05/02 02:35:10;;;;;;;5.30;4.90;;;16.70;59.80;;;;;;5026300;28;20543;-48
2022/05/02 02:37:39;;;;;;;4.93;4.63;;;16.70;59.90;;;;;;5029313;28;20862;-48
2022/05/02 02:40:09;;;;;;;5.70;5.20;;;16.70;59.80;;;;;;5024554;28;20491;-48
2022/05/02 02:42:38;;;;;;;4.67;4.37;;;16.70;59.60;;;;;;5011333;28;21458;-47
2022/05/02 02:45:08;;;;;;;7.00;5.00;;;16.70;59.70;;;;;;5005154;28;20977;-46
2022/05/02 02:47:37;;;;;;;5.40;4.93;;;16.70;59.80;;;;;;5052004;28;20460;-48
2022/05/02 02:50:06;;;;;;;5.47;5.07;;;16.70;59.70;;;;;;5050198;28;20529;-48
2022/05/02 02:52:34;;;;;;;5.63;5.23;;;16.70;59.90;;;;;;5065364;28;20438;-46
2022/05/02 02:55:02;;;;;;;5.80;5.37;;;16.70;59.90;;;;;;5057914;28;20456;-47
2022/05/02 02:57:30;;;;;;;5.80;5.30;;;16.70;59.90;;;;;;5027936;28;20420;-45
2022/05/02 02:59:58;;;;;;;5.07;4.67;;;16.70;59.90;;;;;;5036369;28;20534;-46
2022/05/02 03:02:28;;;;;;;5.70;5.20;;;16.70;59.80;;;;;;5043926;28;20467;-46
2022/05/02 03:07:42;;;;;;;5.87;5.37;;;16.70;60.00;;;;;;5016775;28;20431;-47
2022/05/02 03:10:10;;;;;;;5.20;4.73;;;16.70;59.90;;;;;;5018069;28;20824;-46
2022/05/02 03:12:38;;;;;;;5.30;4.90;;;16.70;59.90;;;;;;5016457;28;20436;-47
2022/05/02 03:15:07;;;;;;;5.30;4.90;;;16.70;61.10;;;;;;5021686;28;20440;-46
2022/05/02 03:17:37;;;;;;;6.07;5.57;;;16.70;59.90;;;;;;5023172;28;20428;-48
2022/05/02 03:20:06;;;;;;;5.30;4.90;;;16.70;59.90;;;;;;5013023;28;20556;-48
2022/05/02 03:22:34;;;;;;;4.23;3.90;;;16.70;60.00;;;;;;5023549;28;20938;-47
2022/05/02 03:25:03;;;;;;;5.10;4.70;;;16.60;60.20;;;;;;5018964;28;20457;-47
2022/05/02 03:27:31;;;;;;;5.63;5.23;;;16.60;60.10;;;;;;5004689;28;20418;-47
2022/05/02 03:29:59;;;;;;;5.90;5.40;;;16.60;60.10;;;;;;5017844;28;20842;-46
2022/05/02 03:32:27;;;;;;;5.17;4.00;;;16.60;60.00;;;;;;5004420;28;20796;-47
2022/05/02 03:34:56;;;;;;;5.33;4.83;;;16.60;60.00;;;;;;5010479;28;20471;-46
2022/05/02 03:37:24;;;;;;;5.27;4.87;;;16.60;60.30;;;;;;5053344;28;20466;-45
2022/05/02 03:39:52;;;;;;;6.00;5.50;;;16.60;60.30;;;;;;5046031;28;20434;-46
2022/05/02 03:42:21;;;;;;;5.60;5.10;;;16.60;60.10;;;;;;5033012;28;20770;-47
2022/05/02 03:44:49;;;;;;;4.60;4.27;;;16.60;60.10;;;;;;5041886;28;20590;-47
2022/05/02 03:47:18;;;;;;;5.67;5.17;;;16.60;60.10;;;;;;5042947;28;20807;-48
2022/05/02 03:49:46;;;;;;;5.60;5.20;;;16.60;60.10;;;;;;5030639;28;20448;-47
2022/05/02 03:52:16;;;;;;;5.00;4.60;;;16.60;60.40;;;;;;5044070;28;20840;-47
2022/05/02 03:54:44;;;;;;;5.87;5.40;;;16.60;60.30;;;;;;5044601;28;20514;-47
2022/05/02 03:57:15;;;;;;;5.03;4.63;;;16.60;60.20;;;;;;5033576;28;20966;-48
2022/05/02 03:59:43;;;;;;;4.90;4.50;;;16.60;60.40;;;;;;5046078;28;20459;-45
2022/05/02 04:02:12;;;;;;;5.63;4.90;;;16.60;60.50;;;;;;5067037;28;20454;-48
2022/05/02 04:04:40;;;;;;;5.80;5.30;;;16.60;60.40;;;;;;5042809;28;20480;-46
2022/05/02 04:07:08;;;;;;;5.87;5.30;;;16.60;60.50;;;;;;5047241;28;20578;-49
2022/05/02 04:09:38;;;;;;;5.70;5.20;;;16.60;60.50;;;;;;5047256;28;20442;-48
2022/05/02 04:12:07;;;;;;;13.47;5.50;;;16.50;60.50;;;;;;5008408;28;20560;-46
2022/05/02 04:14:35;;;;;;;6.23;5.73;;;16.60;60.40;;;;;;5007211;28;20459;-48
2022/05/02 04:17:03;;;;;;;5.50;5.00;;;16.50;60.50;;;;;;5026789;28;20570;-47
2022/05/02 04:19:31;;;;;;;5.00;4.50;;;16.50;60.50;;;;;;5028075;28;20521;-46
2022/05/02 04:22:00;;;;;;;5.00;4.60;;;16.50;60.40;;;;;;5031906;28;20532;-48
2022/05/02 04:24:28;;;;;;;5.20;4.70;;;16.50;60.50;;;;;;5046559;28;20747;-47
2022/05/02 04:26:58;;;;;;;5.07;4.67;;;16.50;60.50;;;;;;5027087;28;20653;-46
2022/05/02 04:29:26;;;;;;;4.30;4.00;;;16.50;60.50;;;;;;5027208;28;20440;-47
2022/05/02 04:31:54;;;;;;;6.00;5.50;;;16.50;60.50;;;;;;5027143;28;20476;-46
2022/05/02 04:34:22;;;;;;;5.57;5.17;;;16.50;60.50;;;;;;5025673;28;20440;-47
2022/05/02 04:36:50;;;;;;;5.03;4.63;;;16.50;60.50;;;;;;5040194;28;20815;-46
2022/05/02 04:39:18;;;;;;;5.00;4.57;;;16.50;60.50;;;;;;5045004;28;21009;-47
2022/05/02 04:41:47;;;;;;;5.67;5.17;;;16.50;60.50;;;;;;5033362;28;20843;-47
2022/05/02 04:44:16;;;;;;;5.40;5.00;;;16.50;60.50;;;;;;5058440;28;20480;-48
2022/05/02 04:46:44;;;;;;;6.47;5.97;;;16.50;60.50;;;;;;5046237;28;20877;-47
2022/05/02 04:49:13;;;;;;;5.60;5.10;;;16.50;60.50;;;;;;5044984;28;20423;-48
2022/05/02 04:51:41;;;;;;;5.40;5.00;;;16.50;60.50;;;;;;5044566;28;20571;-47
2022/05/02 04:54:09;;;;;;;4.57;4.20;;;16.50;60.50;;;;;;5052456;28;20517;-49
2022/05/02 04:56:37;;;;;;;5.80;5.20;;;16.50;60.50;;;;;;5042733;28;21058;-48
2022/05/02 04:59:06;;;;;;;5.17;4.77;;;16.50;60.50;;;;;;5046411;28;20427;-48
2022/05/02 05:01:35;;;;;;;5.50;5.00;;;16.40;60.40;;;;;;5044605;28;20658;-48
2022/05/02 05:04:04;;;;;;;5.07;4.67;;;16.40;60.40;;;;;;5044744;28;20431;-46
2022/05/02 05:06:32;;;;;;;5.63;5.13;;;16.40;60.40;;;;;;5036986;28;20485;-48
2022/05/02 05:09:01;;;;;;;5.83;5.30;;;16.40;60.40;;;;;;5045734;28;20419;-47
2022/05/02 05:11:37;;;;;;;5.10;4.70;;;16.40;60.40;;;;;;5043812;28;20516;-47
2022/05/02 05:17:15;;;;;;;5.60;5.10;;;16.40;60.40;;;;;;5033094;28;20584;-47
2022/05/02 05:20:03;;;;;;;5.53;5.13;;;16.40;60.40;;;;;;5054529;28;20477;-47
2022/05/02 05:22:54;;;;;;;6.07;5.43;;;16.40;60.40;;;;;;5044274;28;20491;-49
2022/05/02 05:25:39;;;;;;;6.40;5.27;;;16.40;60.40;;;;;;5043567;28;20456;-48
2022/05/02 05:28:46;;;;;;;5.97;5.40;;;16.40;60.40;;;;;;5045231;28;20427;-46
2022/05/02 05:31:30;;;;;;;5.50;5.00;;;16.40;60.50;;;;;;5044752;28;20524;-46
2022/05/02 05:34:06;;;;;;;5.13;4.60;;;16.40;60.40;;;;;;5043671;28;20703;-48
2022/05/02 05:36:56;;;;;;;6.07;4.80;;;16.40;60.40;;;;;;5030199;28;21171;-49
2022/05/02 05:39:35;;;;;;;5.10;4.70;;;16.40;60.40;;;;;;5045622;28;20498;-48
2022/05/02 05:42:11;;;;;;;5.10;4.70;;;16.40;60.40;;;;;;5043896;28;20481;-46
2022/05/02 05:44:54;;;;;;;6.13;5.53;;;16.40;60.40;;;;;;5043481;28;20942;-47
2022/05/02 05:47:53;;;;;;;5.40;4.90;;;16.40;60.40;;;;;;5054480;28;20534;-46
2022/05/02 05:50:26;;;;;;;5.87;5.00;;;16.40;60.50;;;;;;5033830;28;20467;-46
2022/05/02 05:53:08;;;;;;;5.23;4.83;;;16.40;60.40;;;;;;5043852;28;20705;-46
2022/05/02 05:55:57;;;;;;;5.57;5.17;;;16.40;60.40;;;;;;5044093;28;20849;-46
2022/05/02 05:58:35;;;;;;;4.57;4.17;;;16.40;60.40;;;;;;5041698;28;21036;-46
2022/05/02 06:01:12;;;;;;;5.50;5.00;;;16.40;60.40;;;;;;5044907;28;20557;-47
2022/05/02 06:04:00;;;;;;;6.43;5.83;;;16.40;60.40;;;;;;5042217;28;20466;-48
2022/05/02 06:06:31;;;;;;;6.50;5.10;;;16.30;60.30;;;;;;5044083;28;20537;-46
2022/05/02 06:08:59;;;;;;;5.73;5.23;;;16.30;60.30;;;;;;5044849;28;20505;-48
2022/05/02 06:11:29;;;;;;;5.37;4.97;;;16.40;60.40;;;;;;5030677;28;20729;-48
2022/05/02 06:14:00;;;;;;;5.20;4.80;;;16.40;60.40;;;;;;5044395;28;21373;-48
2022/05/02 06:19:25;;;;;;;5.30;4.90;;;16.30;60.30;;;;;;5058545;28;20877;-48
2022/05/02 06:21:56;;;;;;;5.20;4.80;;;16.30;60.30;;;;;;5044289;28;20606;-45
2022/05/02 06:24:27;;;;;;;6.20;5.70;;;16.30;60.30;;;;;;5044442;28;20436;-48
2022/05/02 06:26:56;;;;;;;5.50;5.00;;;16.30;60.30;;;;;;5038763;28;20532;-47
2022/05/02 06:29:25;;;;;;;5.57;5.00;;;16.30;60.30;;;;;;5044177;28;20457;-47
2022/05/02 06:31:55;;;;;;;5.47;4.97;;;16.30;60.30;;;;;;5043975;28;20609;-47
2022/05/02 06:34:28;;;;;;;5.43;4.93;;;16.30;60.30;;;;;;5035212;28;20534;-47
2022/05/02 06:37:14;;;;;;;4.63;4.20;;;16.30;60.30;;;;;;5043645;28;20510;-49
2022/05/02 06:39:57;;;;;;;6.53;5.83;;;16.30;60.30;;;;;;5042435;28;20463;-46
2022/05/02 06:42:31;;;;;;;5.73;5.23;;;16.30;60.30;;;;;;5033356;28;20562;-48
2022/05/02 06:45:18;;;;;;;5.17;4.77;;;16.30;60.40;;;;;;5043192;28;20911;-47
2022/05/02 06:48:03;;;;;;;5.40;4.90;;;16.30;60.30;;;;;;5044320;28;20430;-47
2022/05/02 06:50:33;;;;;;;5.20;4.70;;;16.30;60.30;;;;;;5025942;28;20850;-46
2022/05/02 06:53:22;;;;;;;5.60;5.10;;;16.30;60.40;;;;;;5026209;28;20427;-46
2022/05/02 06:55:59;;;;;;;5.40;4.90;;;16.30;60.30;;;;;;5021481;28;20508;-47
2022/05/02 06:58:37;;;;;;;6.60;6.00;;;16.30;60.30;;;;;;5041403;28;20831;-46
2022/05/02 07:01:15;;;;;;;6.13;5.53;;;16.30;60.30;;;;;;5054190;28;20913;-46
2022/05/02 07:04:06;;;;;;;5.07;4.67;;;16.30;60.30;;;;;;5062849;28;20434;-49
2022/05/02 07:06:50;;;;;;;6.83;5.23;;;16.30;60.30;;;;;;5038413;28;20516;-47
2022/05/02 07:09:24;;;;;;;4.97;4.60;;;16.30;60.30;;;;;;5043234;28;20929;-46
2022/05/02 07:12:06;;;;;;;4.87;4.47;;;16.30;60.30;;;;;;5037575;28;20462;-47
2022/05/02 07:14:59;;;;;;;6.00;5.40;;;16.30;60.30;;;;;;5043773;28;20435;-47
2022/05/02 07:17:53;;;;;;;6.00;5.50;;;16.30;60.30;;;;;;5062920;28;20466;-47
2022/05/02 07:20:27;;;;;;;6.77;6.17;;;16.30;60.30;;;;;;5052258;28;20490;-47
2022/05/02 07:23:13;;;;;;;6.40;5.80;;;16.30;60.30;;;;;;5042372;28;20443;-49
2022/05/02 07:25:47;;;;;;;5.80;5.20;;;16.30;60.30;;;;;;5037127;28;20913;-47
2022/05/02 07:28:28;;;;;;;6.40;5.70;;;16.30;60.30;;;;;;5043461;28;20808;-47
2022/05/02 07:30:57;;;;;;;5.73;5.13;;;16.30;60.30;;;;;;5043691;28;20528;-47
2022/05/02 07:33:31;;;;;;;5.73;5.23;;;16.30;60.30;;;;;;5039745;28;20942;-47
2022/05/02 07:36:02;;;;;;;6.07;5.43;;;16.40;60.40;;;;;;5035749;28;20888;-46
2022/05/02 07:38:33;;;;;;;6.10;5.60;;;16.40;60.40;;;;;;5062358;28;20547;-46
2022/05/02 07:41:25;;;;;;;8.50;4.80;;;16.40;60.40;;;;;;5053454;28;20628;-49
2022/05/02 07:43:59;;;;;;;5.00;4.60;;;16.40;60.50;;;;;;5050302;28;20792;-49
2022/05/02 07:46:30;;;;;;;4.67;4.33;;;16.40;60.40;;;;;;5040792;28;20834;-46
2022/05/02 07:49:00;;;;;;;4.47;4.10;;;16.40;60.40;;;;;;5035094;28;20522;-47
2022/05/02 07:51:31;;;;;;;4.17;3.87;;;16.40;60.40;;;;;;5045415;28;20463;-47
2022/05/02 07:54:01;;;;;;;5.23;4.77;;;16.40;60.40;;;;;;5041652;28;20490;-48
2022/05/02 07:56:33;;;;;;;4.23;3.83;;;16.40;60.40;;;;;;5040238;28;20475;-46
2022/05/02 07:59:03;;;;;;;8.87;8.07;;;16.50;60.50;;;;;;5055012;28;20461;-48
2022/05/02 08:01:32;;;;;;;10.27;9.30;;;16.50;59.30;;;;;;5059048;28;20552;-48
2022/05/02 08:04:01;;;;;;;8.20;7.40;;;16.50;58.80;;;;;;5054088;28;20486;-46
2022/05/02 08:06:51;;;;;;;6.57;6.07;;;16.50;59.10;;;;;;5040859;28;21051;-48
2022/05/02 08:09:46;;;;;;;9.10;8.20;;;16.50;59.30;;;;;;5042490;28;20506;-46
2022/05/02 08:12:23;;;;;;;7.63;6.90;;;16.50;59.20;;;;;;5037528;28;20525;-47
2022/05/02 08:15:01;;;;;;;13.10;11.80;;;16.50;59.40;;;;;;5041843;28;20458;-48
2022/05/02 08:17:49;;;;;;;12.73;11.53;;;16.50;58.30;;;;;;5042215;28;20451;-46
2022/05/02 08:20:24;;;;;;;12.70;11.40;;;16.50;58.90;;;;;;5030922;28;20454;-46
2022/05/02 08:28:59;;;;;;;12.30;10.93;;;16.60;59.00;;;;;;5044032;28;20926;-48
2022/05/02 08:31:40;;;;;;;13.03;11.63;;;16.60;59.10;;;;;;5046113;28;20470;-46
2022/05/02 08:34:21;;;;;;;15.00;10.63;;;16.60;58.50;;;;;;5041616;28;20938;-49
2022/05/02 08:36:58;;;;;;;9.60;8.57;;;16.60;59.00;;;;;;5036679;28;20474;-45
2022/05/02 08:39:36;;;;;;;11.47;10.30;;;16.60;59.00;;;;;;5046297;28;20759;-47
2022/05/02 08:42:37;;;;;;;12.80;10.70;;;16.60;59.10;;;;;;5044277;28;20525;-47
2022/05/02 08:45:29;;;;;;;9.83;7.70;;;16.60;59.30;;;;;;5030602;28;20502;-47
2022/05/02 08:48:48;;;;;;;9.37;8.57;;;16.70;59.10;;;;;;5045544;28;20985;-49
2022/05/02 08:51:57;;;;;;;9.00;8.20;;;16.70;59.10;;;;;;5039538;28;20489;-47
2022/05/02 08:54:53;;;;;;;9.33;8.43;;;16.70;59.00;;;;;;5041912;28;20439;-46
2022/05/02 08:58:03;;;;;;;7.43;6.73;;;16.70;59.20;;;;;;5041657;28;20471;-49
2022/05/02 09:00:47;;;;;;;9.00;7.47;;;16.70;59.00;;;;;;4983564;28;20740;-45
2022/05/02 09:03:49;;;;;;;7.40;6.70;;;16.70;58.70;;;;;;5002454;28;20545;-47
2022/05/02 09:06:59;;;;;;;13.30;8.60;;;16.70;58.90;;;;;;5061967;28;20879;-45
2022/05/02 09:09:56;;;;;;;8.70;7.80;;;16.70;58.00;;;;;;5065179;28;20477;-48
2022/05/02 09:12:56;;;;;;;8.50;7.70;;;16.70;58.60;;;;;;5042786;28;20463;-47
2022/05/02 09:15:57;;;;;;;6.63;6.03;;;16.70;58.80;;;;;;5044081;28;20846;-47
2022/05/02 09:19:15;;;;;;;7.40;6.03;;;16.70;58.80;;;;;;5050384;28;20455;-48
2022/05/02 09:22:10;;;;;;;7.43;6.63;;;16.70;58.60;;;;;;5059548;28;20565;-50
2022/05/02 09:25:07;;;;;;;7.60;6.80;;;16.70;58.30;;;;;;5050301;28;20438;-47
2022/05/02 09:27:52;;;;;;;8.43;6.63;;;16.70;58.20;;;;;;5051826;28;20495;-48
2022/05/02 09:30:58;;;;;;;8.30;6.63;;;16.70;58.50;;;;;;5047346;28;20819;-47
2022/05/02 09:33:35;;;;;;;7.73;6.97;;;16.70;58.30;;;;;;5059944;28;20434;-47
2022/05/02 09:36:15;;;;;;;9.43;6.90;;;16.70;58.50;;;;;;5051660;28;20466;-47
2022/05/02 09:38:51;;;;;;;9.30;7.30;;;16.70;58.30;;;;;;5055139;28;20456;-46
2022/05/02 09:42:04;;;;;;;7.00;6.00;;;16.70;58.30;;;;;;5040896;28;20536;-49
2022/05/02 09:51:11;;;;;;;7.23;6.60;;;16.70;58.50;;;;;;5025736;28;20487;-45
2022/05/02 09:53:50;;;;;;;12.00;9.37;;;16.70;58.50;;;;;;5042524;28;20517;-44
2022/05/02 09:56:38;;;;;;;6.90;6.20;;;16.70;57.00;;;;;;5027501;28;20470;-45
2022/05/02 09:59:10;;;;;;;6.93;6.33;;;16.70;58.10;;;;;;5036906;28;20458;-47
2022/05/02 10:01:47;;;;;;;9.93;6.70;;;16.70;58.30;;;;;;5042753;28;20570;-46
2022/05/02 10:04:42;;;;;;;12.93;6.33;;;16.70;58.30;;;;;;5043851;28;20987;-46
2022/05/02 10:07:17;;;;;;;9.30;6.20;;;16.70;58.10;;;;;;5025053;28;20468;-46
2022/05/02 10:10:05;;;;;;;6.93;5.33;;;16.70;58.20;;;;;;5025713;28;20907;-45
2022/05/02 10:12:46;;;;;;;10.43;7.30;;;16.70;58.40;;;;;;5022977;28;20823;-46
2022/05/02 10:15:40;;;;;;;9.97;9.07;;;16.70;57.90;;;;;;5026886;28;20467;-47
2022/05/02 10:18:42;;;;;;;8.93;6.77;;;16.70;56.70;;;;;;5043269;28;20534;-46
2022/05/02 10:21:30;;;;;;;6.60;6.00;;;16.70;57.50;;;;;;5031420;28;20883;-46
2022/05/02 10:24:18;;;;;;;7.00;6.40;;;16.80;58.00;;;;;;5023989;28;20436;-47
2022/05/02 10:26:52;;;;;;;8.17;7.37;;;16.70;57.90;;;;;;5035857;28;20470;-47
2022/05/02 10:29:46;;;;;;;7.20;6.40;;;16.70;57.80;;;;;;5023495;28;20516;-46
2022/05/02 10:32:28;;;;;;;9.27;7.70;;;16.80;58.00;;;;;;5046748;28;20566;-47
2022/05/02 10:35:00;;;;;;;13.03;11.83;;;16.80;57.80;;;;;;5020473;28;20472;-46
2022/05/02 10:37:31;;;;;;;9.00;8.10;;;16.80;54.10;;;;;;5022352;28;20514;-47
2022/05/02 10:40:08;;;;;;;8.90;7.67;;;16.80;56.70;;;;;;5033952;28;20460;-47
2022/05/02 10:42:36;;;;;;;8.27;6.77;;;16.80;57.20;;;;;;5017555;28;20954;-48
2022/05/02 10:45:06;;;;;;;7.27;6.57;;;16.80;57.30;;;;;;5042792;28;20482;-46
2022/05/02 10:47:42;;;;;;;7.90;7.10;;;16.80;57.40;;;;;;5036963;28;20605;-46
2022/05/02 10:50:18;;;;;;;8.17;7.37;;;16.80;57.50;;;;;;5025998;28;20510;-46
2022/05/02 10:52:55;;;;;;;9.60;7.10;;;16.80;57.50;;;;;;5025074;28;20428;-48
2022/05/02 10:55:31;;;;;;;7.20;6.50;;;16.80;57.60;;;;;;5028931;28;20472;-47
2022/05/02 10:58:02;;;;;;;9.80;7.83;;;16.80;57.60;;;;;;5032160;28;20443;-46
2022/05/02 11:00:32;;;;;;;7.57;6.97;;;16.80;57.10;;;;;;5042785;28;20551;-48
2022/05/02 11:03:25;;;;;;;10.80;7.80;;;16.80;57.10;;;;;;5038882;28;20461;-48
2022/05/02 11:06:03;;;;;;;8.13;7.23;;;16.80;57.20;;;;;;5035220;28;20521;-48
2022/05/02 11:08:37;;;;;;;8.80;8.00;;;16.80;57.00;;;;;;5039610;28;20961;-47
2022/05/02 11:11:08;;;;;;;13.10;9.30;;;16.80;57.00;;;;;;5028328;28;20472;-47
2022/05/02 11:13:45;;;;;;;7.33;6.67;;;16.80;55.30;;;;;;5024475;28;20456;-48
2022/05/02 11:16:23;;;;;;;7.40;6.67;;;16.80;56.80;;;;;;5041885;28;20569;-47
2022/05/02 11:21:56;;;;;;;8.87;7.00;;;16.90;57.00;;;;;;5038965;28;20536;-46
2022/05/02 11:24:47;;;;;;;9.13;6.70;;;16.80;57.20;;;;;;5041678;28;20435;-47
2022/05/02 11:27:26;;;;;;;8.20;6.23;;;16.90;57.40;;;;;;5028895;28;20924;-47
2022/05/02 11:30:04;;;;;;;7.50;6.80;;;16.90;57.50;;;;;;5039628;28;20906;-48
2022/05/02 11:32:42;;;;;;;7.20;6.50;;;16.90;57.30;;;;;;5034226;28;20466;-48
2022/05/02 11:35:13;;;;;;;9.53;8.53;;;16.90;57.20;;;;;;5041344;28;20450;-45
2022/05/02 11:37:53;;;;;;;7.90;7.10;;;16.90;55.90;;;;;;5036296;28;20439;-47
2022/05/02 11:40:27;;;;;;;7.23;6.63;;;16.90;56.80;;;;;;5037460;28;20468;-46
2022/05/02 11:42:57;;;;;;;8.50;7.63;;;16.90;57.20;;;;;;5040229;28;20940;-48
2022/05/02 11:45:34;;;;;;;13.80;9.93;;;16.90;57.00;;;;;;5042042;28;21061;-45
2022/05/02 11:48:38;;;;;;;8.07;7.23;;;16.90;55.60;;;;;;5035560;28;20968;-47
2022/05/02 11:51:08;;;;;;;10.47;8.90;;;17.00;56.80;;;;;;5034363;28;20474;-47
2022/05/02 11:53:39;;;;;;;9.20;6.83;;;17.00;56.70;;;;;;5063243;28;21081;-48
2022/05/02 11:56:07;;;;;;;7.73;6.93;;;17.00;56.90;;;;;;5035955;28;20480;-48
2022/05/02 11:58:45;;;;;;;13.20;8.17;;;17.00;57.10;;;;;;5050156;28;20942;-47
2022/05/02 12:01:24;;;;;;;7.43;6.73;;;17.00;56.30;;;;;;5043015;28;20467;-46
2022/05/02 12:03:56;;;;;;;10.10;7.93;;;17.00;56.90;;;;;;5043060;28;21055;-46
2022/05/02 12:06:32;;;;;;;8.77;7.97;;;17.00;56.50;;;;;;5062486;28;20576;-46
2022/05/02 12:09:03;;;;;;;9.60;7.20;;;17.00;55.60;;;;;;5062386;28;20465;-46
2022/05/02 12:11:36;;;;;;;7.00;6.30;;;17.00;56.70;;;;;;5044671;28;20540;-47
2022/05/02 12:14:08;;;;;;;7.50;6.43;;;17.00;57.00;;;;;;5045775;28;20459;-48
2022/05/02 12:16:37;;;;;;;8.30;7.20;;;17.00;57.20;;;;;;5047016;28;20487;-45
2022/05/02 12:19:08;;;;;;;6.90;6.30;;;17.00;57.20;;;;;;5042956;28;20440;-48
2022/05/02 12:21:40;;;;;;;7.17;6.20;;;17.00;57.30;;;;;;5044357;28;20463;-48
2022/05/02 12:24:10;;;;;;;7.37;6.67;;;17.00;57.40;;;;;;5044298;28;20455;-45
2022/05/02 12:26:46;;;;;;;12.10;6.37;;;17.00;57.50;;;;;;5047514;28;20470;-49
2022/05/02 12:29:19;;;;;;;7.97;6.80;;;17.00;57.60;;;;;;5054677;28;20473;-48
2022/05/02 12:31:54;;;;;;;8.30;7.50;;;17.00;57.40;;;;;;5046866;28;20529;-47
2022/05/02 12:34:34;;;;;;;7.37;5.87;;;17.00;57.50;;;;;;5038772;28;20472;-44
2022/05/02 12:37:06;;;;;;;7.60;6.60;;;17.10;57.70;;;;;;5026846;28;20466;-46
2022/05/02 12:39:44;;;;;;;7.87;6.63;;;17.10;57.70;;;;;;5026528;28;20458;-47
2022/05/02 12:42:15;;;;;;;7.77;7.17;;;17.10;57.80;;;;;;5026890;28;20830;-46
2022/05/02 12:44:48;;;;;;;7.30;6.57;;;17.10;57.50;;;;;;5043393;28;20434;-48
2022/05/02 12:47:21;;;;;;;8.30;7.10;;;17.10;57.60;;;;;;5054439;28;20506;-46
2022/05/02 12:50:05;;;;;;;8.10;6.90;;;17.10;57.60;;;;;;5026586;28;20527;-49
2022/05/02 12:52:36;;;;;;;7.47;6.67;;;17.10;57.20;;;;;;5039811;28;20973;-46
2022/05/02 12:55:06;;;;;;;6.87;6.23;;;17.10;57.60;;;;;;5040942;28;20873;-48
2022/05/02 13:00:32;;;;;;;7.57;6.70;;;17.20;56.60;;;;;;5026418;28;20451;-46
2022/05/02 13:03:04;;;;;;;7.77;6.97;;;17.20;57.20;;;;;;5053102;28;20426;-48
2022/05/02 13:05:34;;;;;;;8.73;8.03;;;17.20;57.10;;;;;;5049663;28;20546;-47
2022/05/02 13:08:11;;;;;;;8.07;7.07;;;17.20;56.70;;;;;;5046205;28;20475;-48
2022/05/02 13:10:43;;;;;;;10.50;8.50;;;17.20;56.70;;;;;;5037743;28;20463;-46
2022/05/02 13:13:13;;;;;;;7.77;7.00;;;17.20;56.70;;;;;;5046865;28;20466;-45
2022/05/02 13:15:53;;;;;;;7.67;6.17;;;17.20;57.00;;;;;;5055626;28;20473;-48
2022/05/02 13:18:23;;;;;;;8.00;7.20;;;17.20;57.00;;;;;;5065982;28;20809;-47
2022/05/02 13:20:59;;;;;;;11.00;7.67;;;17.20;57.20;;;;;;5030818;28;20499;-47
2022/05/02 13:23:38;;;;;;;8.30;7.47;;;17.20;57.10;;;;;;5044454;28;21394;-48
2022/05/02 13:26:33;;;;;;;7.67;7.00;;;17.20;56.80;;;;;;5037356;28;20477;-47
2022/05/02 13:29:07;;;;;;;9.07;8.17;;;17.20;57.00;;;;;;5045459;28;20435;-46
2022/05/02 13:31:47;;;;;;;10.03;8.87;;;17.20;56.60;;;;;;5062450;28;20485;-46
2022/05/02 13:34:27;;;;;;;7.10;6.40;;;17.20;55.90;;;;;;5053149;28;20797;-49
2022/05/02 13:37:04;;;;;;;8.53;7.00;;;17.20;56.10;;;;;;5037862;28;20492;-46
2022/05/02 13:39:47;;;;;;;8.90;7.07;;;17.20;56.50;;;;;;5044098;28;20806;-47
2022/05/02 13:42:30;;;;;;;7.57;6.97;;;17.20;56.60;;;;;;5038565;28;20896;-45
2022/05/02 13:44:59;;;;;;;9.27;6.97;;;17.20;56.70;;;;;;5043304;28;21018;-47
2022/05/02 13:47:36;;;;;;;9.43;8.07;;;17.20;55.90;;;;;;5044897;28;20809;-47
2022/05/02 13:50:11;;;;;;;10.57;9.37;;;17.30;56.40;;;;;;5051561;28;20429;-47
2022/05/02 13:52:52;;;;;;;7.63;6.93;;;17.30;54.30;;;;;;5064689;28;20545;-45
2022/05/02 13:55:51;;;;;;;6.87;6.27;;;17.30;56.00;;;;;;5047012;28;20933;-47
2022/05/02 13:58:33;;;;;;;9.90;8.33;;;17.30;56.40;;;;;;5060865;28;20492;-47